コロンボ の空港の天気 - METARとTAF

バンダラナイケ国際空港 ( VCBI / CMB ) - スリランカ コロンボ
飛行場実況気象(Metar)
観測時間11/18 16:40 IST (11/18 11:10 UTC)
風向・風速西 4m/s
視程10km以上
天気現象
少しの雲 雲底高度 550m
少しの雲 雲底高度 610m
気温30℃
湿度66%
気圧1006hPa
METARVCBI 181110Z 28007KT 250V030 9999 FEW018 FEW020CB 30/23 Q1006 NOSIG RMK SE
過去の天気等 Google飛行場航空写真 Wunderground天気予報

過去48時間のMETAR

飛行場予報(TAF)
発表時間: 11/18 15:10 IST (11/18 09:40 UTC)
予報対象時間: 18日17時 IST ~ 19日23時 IST
風向・風速不定 3m/s
視程10km以上
少しの雲 雲底高度 550m
18日17時 IST ~ 18日21時 IST に一時的に
全天の4割程度の雲 雲底高度 490m
少しの積乱雲 雲底高度 610m
19日4時 IST ~ 19日7時 IST に一時的に
視程5,000m
天気現象もや
19日9時 IST ~ 19日11時 IST に徐々に
風向・風速西 5m/s
TAF VCBI 180940Z 1812/1918 VRB05KT 9999 FEW018 TX32/1907Z TN25/1900Z
TEMPO 1812/1816 SCT016 FEW020CB
TEMPO 1823/1902 5000 BR
BECMG 1904/1906 26010KT